Ungava - western half: Past 24 Hour Conditions

 

Qikiqtarjuaq Airport

04:00 AM EDT 24 October 2014
This table is a summary of hourly weather conditions for the past 24 hours.
Date / Time
(EDT)
Wind(knots) Conditions Visibility(km) Pressure(kPa) Air tempC) Relative humidity(%) Dew pointC) Wind Chill
24 October 2014
4:00 NW 16 gust 21 Cloudy 16 100.3 -7 67 -12 -15
3:00 NW 18 Cloudy 16 100.3 -7 48 -16 -16
2:00 WNW 20 Mostly Cloudy 16 100.3 -7 49 -16 -17
1:00 NW 14 Clear 16 100.4 -8 45 -18 -17
0:00 W 13 gust 20 Mostly Cloudy 16 100.4 -9 48 -19 -18
23 October 2014
23:00 W 11 gust 21 Clear 16 100.4 -9 47 -18 -17
22:00 WNW 18 gust 26 Clear 16 100.3 -8 48 -17 -17
21:00 WNW 12 Clear 16 100.4 -9 49 -18 -17
20:00 WNW 5 Clear 16 100.5 -9 40 -21 -14
19:00 NNW 10 Clear 16 100.5 -9 51 -17 -16
18:00 NW 10 gust 15 Drifting Snow 24 100.5 -9 51 -18 -17
17:00 NW 9 Clear 24 100.5 -9 41 -20 -16
16:00 WNW 13 gust 19 Drifting Snow 24 100.4 -8 43 -18 -16
15:00 WNW 17 gust 22 Drifting Snow 24 100.3 -7 47 -17 -16
14:00 WNW 16 Drifting Snow 24 100.3 -7 44 -17 -15
13:00 WNW 17 Drifting Snow 24 100.3 -6 42 -17 -15
12:00 NW 12 Mainly Sunny 24 100.3 -7 42 -18 -14
11:00 NW 13 Sunny 24 100.2 -6 51 -15 -14
10:00 NW 12 Sunny 24 100.2 -6 41 -17 -13
9:00 NNW 14 gust 21 Drifting Snow 24 100.1 -6 54 -14 -14
8:00 NNW 16 Sunny 16 100.1 -4 52 -12 -11
7:00 SSW 9 Clear 16 100.0 -5 76 -9 -12
6:00 S 3 Cloudy 16 100.1 -4 79 -7 -6
5:00 S 3 Partly Cloudy 16 100.1 -7 82 -10 -10
4:00 SE 6 Clear 16 100.1 -7 77 -10 -12
 
Map of Arctic - Eastern Arctic marine weather areas Baker Lake Airport Chesterfield Inlet Airport Coral Harbour Airport Gjoa Haven Airport Kugaaruk Airport Rankin Inlet Airport Shepherd Bay Airport Whale Cove Airport Arctic Bay Brevoort Island Qikiqtarjuaq Airport Cape Dorset Airport Cape Dyer Cape Hooper Clyde Airport Grise Fiord Airport Hall Beach Airport Igloolik Airport Iqaluit Airport Longstaff Bluff Pangnirtung Airport Pond Inlet Airport Repulse Bay Airport Resolute Airport Resolution Island Rowley Island Airport Taloyoak Airport Wager Bay Akulivik Airport Ivujivik Airport Puvirnituq Airport Kangiqsujuaq Airport Kangirsuk Airport Quaqtaq Airport Tasiujaq Airport Cape Kakkiviak Cape Kiglapait Nain Airport Saglek Cape Mercy Kimmirut Airport Aupaluk Airport Salluit Airport Kangiqsualujjuaq Airport Fort Ross
Legend: buoyBuoy land stationLand Station